Time;durP1;ratioP1;P1;durP2;ratioP2;P2;SDS_P1;SDS_P2;PMS_P1;PMS_P2;Temp;Humidity;BMP_temperature;BMP_pressure;BME280_temperature;BME280_humidity;BME280_pressure;Samples;Min_cycle;Max_cycle;Signal;HPM_P1;HPM_P2
2022/08/28 00:01:32;;;;;;;12.82;7.10;;;14.20;99.90;;;;;;6340681;22;20362;-74
2022/08/28 00:03:59;;;;;;;8.65;6.03;;;14.20;99.90;;;;;;6340368;22;20086;-74
2022/08/28 00:06:25;;;;;;;10.32;7.18;;;14.20;99.90;;;;;;6340728;22;20006;-74
2022/08/28 00:08:51;;;;;;;9.30;6.25;;;14.20;99.90;;;;;;6339490;22;20055;-74
2022/08/28 00:11:17;;;;;;;14.00;7.13;;;14.20;99.90;;;;;;6339990;22;20015;-74
2022/08/28 00:13:42;;;;;;;10.65;6.40;;;14.20;99.90;;;;;;6340017;22;19998;-74
2022/08/28 00:16:08;;;;;;;9.18;6.07;;;14.20;99.90;;;;;;6339630;22;19999;-74
2022/08/28 00:18:34;;;;;;;10.40;6.72;;;14.10;99.90;;;;;;6340617;22;19999;-74
2022/08/28 00:21:00;;;;;;;10.80;7.30;;;14.10;99.90;;;;;;6340633;22;20074;-74
2022/08/28 00:23:26;;;;;;;13.43;5.90;;;14.10;99.90;;;;;;6339501;22;20434;-74
2022/08/28 00:25:52;;;;;;;15.00;6.55;;;14.10;99.90;;;;;;6340711;22;20002;-74
2022/08/28 00:28:18;;;;;;;9.15;5.65;;;14.10;99.90;;;;;;6340038;22;20065;-74
2022/08/28 00:30:47;;;;;;;9.98;7.13;;;14.10;99.90;;;;;;6339548;22;20007;-74
2022/08/28 00:33:35;;;;;;;8.98;5.75;;;14.10;99.90;;;;;;6340396;22;20051;-73
2022/08/28 00:36:01;;;;;;;11.70;6.65;;;14.00;99.90;;;;;;6339563;22;20003;-74
2022/08/28 00:38:28;;;;;;;8.05;5.90;;;14.00;99.90;;;;;;6339093;22;20437;-74
2022/08/28 00:40:57;;;;;;;11.10;6.75;;;13.90;99.90;;;;;;6339748;22;20454;-75
2022/08/28 00:43:33;;;;;;;9.48;6.57;;;13.90;99.90;;;;;;6340253;22;20016;-75
2022/08/28 00:46:00;;;;;;;9.32;5.88;;;13.90;99.90;;;;;;6339464;22;20002;-75
2022/08/28 00:48:27;;;;;;;7.32;6.03;;;13.80;99.90;;;;;;6340001;22;20003;-75
2022/08/28 00:53:36;;;;;;;12.50;6.30;;;13.70;99.90;;;;;;6340203;22;20021;-75
2022/08/28 00:56:05;;;;;;;8.55;5.43;;;13.80;99.90;;;;;;6340186;22;20443;-75
2022/08/28 00:58:31;;;;;;;7.13;5.15;;;13.70;99.90;;;;;;6339392;22;20043;-75
2022/08/28 01:00:59;;;;;;;7.32;5.63;;;13.70;99.90;;;;;;6340249;22;20284;-74
2022/08/28 01:03:26;;;;;;;13.65;6.88;;;13.70;99.90;;;;;;6340087;22;20003;-75
2022/08/28 01:05:51;;;;;;;6.53;5.68;;;13.70;99.90;;;;;;6338929;22;20002;-75
2022/08/28 01:08:17;;;;;;;8.30;6.05;;;13.70;99.90;;;;;;6340347;22;20005;-75
2022/08/28 01:10:49;;;;;;;8.75;5.72;;;13.70;99.90;;;;;;6340006;22;20018;-74
2022/08/28 01:13:16;;;;;;;8.52;5.75;;;13.70;99.90;;;;;;6339273;22;20075;-75
2022/08/28 01:15:43;;;;;;;7.43;6.03;;;13.60;99.90;;;;;;6339996;22;20041;-74
2022/08/28 01:18:14;;;;;;;11.40;5.82;;;13.70;99.90;;;;;;6340007;22;20003;-74
2022/08/28 01:20:47;;;;;;;9.07;6.25;;;13.60;99.90;;;;;;6338860;22;20003;-75
2022/08/28 01:23:53;;;;;;;9.13;5.65;;;13.60;99.90;;;;;;6339908;22;20003;-74
2022/08/28 01:26:20;;;;;;;10.02;4.85;;;13.60;99.90;;;;;;6338577;22;20021;-74
2022/08/28 01:28:47;;;;;;;10.13;5.53;;;13.60;99.90;;;;;;6339476;22;20021;-74
2022/08/28 01:31:15;;;;;;;9.13;5.10;;;13.60;99.90;;;;;;6339416;22;20014;-74
2022/08/28 01:33:43;;;;;;;9.85;5.75;;;13.60;99.90;;;;;;6339043;22;20005;-75
2022/08/28 01:36:11;;;;;;;7.85;5.15;;;13.50;99.90;;;;;;6339743;22;20070;-75
2022/08/28 01:38:37;;;;;;;9.43;6.05;;;13.50;99.90;;;;;;6340131;22;19999;-75
2022/08/28 01:41:03;;;;;;;12.90;5.55;;;13.50;99.90;;;;;;6338660;22;20442;-74
2022/08/28 01:43:30;;;;;;;8.63;5.50;;;13.60;99.90;;;;;;6339754;22;19995;-75
2022/08/28 01:46:02;;;;;;;11.02;5.55;;;13.50;99.90;;;;;;6339824;22;20319;-74
2022/08/28 01:48:30;;;;;;;11.93;5.90;;;13.50;99.90;;;;;;6339151;22;20003;-75
2022/08/28 01:50:56;;;;;;;13.02;6.32;;;13.50;99.90;;;;;;6339195;22;20022;-75
2022/08/28 01:53:24;;;;;;;5.93;5.32;;;13.50;99.90;;;;;;6339348;22;19995;-75
2022/08/28 01:55:51;;;;;;;12.10;5.25;;;13.50;99.90;;;;;;6338943;22;20068;-73
2022/08/28 01:58:17;;;;;;;10.00;5.28;;;13.50;99.90;;;;;;6339665;22;19999;-74
2022/08/28 02:00:43;;;;;;;10.32;5.95;;;13.50;99.90;;;;;;6339500;22;19998;-74
2022/08/28 02:03:09;;;;;;;6.40;4.68;;;13.40;99.90;;;;;;6338823;22;20044;-74
2022/08/28 02:05:35;;;;;;;9.80;5.65;;;13.50;99.90;;;;;;6339902;22;20070;-75
2022/08/28 02:08:03;;;;;;;10.93;5.28;;;13.40;99.90;;;;;;6340403;22;19999;-74
2022/08/28 02:10:32;;;;;;;10.68;5.30;;;13.40;99.90;;;;;;6340876;22;20015;-74
2022/08/28 02:12:58;;;;;;;7.72;4.93;;;13.40;99.90;;;;;;6342096;22;20006;-74
2022/08/28 02:15:25;;;;;;;6.80;4.78;;;13.40;99.90;;;;;;6344567;22;20013;-74
2022/08/28 02:17:51;;;;;;;12.60;4.95;;;13.40;99.90;;;;;;6344803;22;20423;-74
2022/08/28 02:20:17;;;;;;;11.77;5.38;;;13.40;99.90;;;;;;6345691;22;20006;-74
2022/08/28 02:22:43;;;;;;;7.80;5.28;;;13.40;99.90;;;;;;6350333;22;20003;-74
2022/08/28 02:25:09;;;;;;;8.23;4.90;;;13.40;99.90;;;;;;6349340;22;19999;-74
2022/08/28 02:27:35;;;;;;;9.68;4.72;;;13.30;99.90;;;;;;6347732;22;20046;-74
2022/08/28 02:30:01;;;;;;;7.50;4.60;;;13.40;99.90;;;;;;6339307;22;20014;-75
2022/08/28 02:32:28;;;;;;;8.63;4.60;;;13.30;99.90;;;;;;6339382;22;20009;-74
2022/08/28 02:34:54;;;;;;;9.40;4.78;;;13.30;99.90;;;;;;6339024;22;20003;-74
2022/08/28 02:37:23;;;;;;;11.70;5.35;;;13.30;99.90;;;;;;6338619;22;20060;-74
2022/08/28 02:39:49;;;;;;;8.98;4.43;;;13.30;99.90;;;;;;6339305;22;20003;-74
2022/08/28 02:42:15;;;;;;;9.23;4.28;;;13.30;99.90;;;;;;6339471;22;20005;-74
2022/08/28 02:44:41;;;;;;;13.10;4.95;;;13.30;99.90;;;;;;6338463;22;20007;-74
2022/08/28 02:47:14;;;;;;;13.80;4.70;;;13.20;99.90;;;;;;6339460;22;20377;-76
2022/08/28 02:49:43;;;;;;;9.40;4.68;;;13.30;99.90;;;;;;6339638;22;20003;-74
2022/08/28 02:52:09;;;;;;;7.95;4.32;;;13.30;99.90;;;;;;6338112;22;20438;-75
2022/08/28 02:54:37;;;;;;;7.90;5.00;;;13.30;99.90;;;;;;6339321;22;20011;-75
2022/08/28 02:57:03;;;;;;;12.88;4.28;;;13.30;99.90;;;;;;6339202;22;20007;-74
2022/08/28 02:59:29;;;;;;;6.43;4.22;;;13.30;99.90;;;;;;6338497;22;20359;-76
2022/08/28 03:01:54;;;;;;;13.55;4.70;;;13.30;99.90;;;;;;6339382;22;20075;-75
2022/08/28 03:04:20;;;;;;;9.13;4.32;;;13.30;99.90;;;;;;6339117;22;20296;-74
2022/08/28 03:06:45;;;;;;;11.02;4.60;;;13.30;99.90;;;;;;6338469;22;19998;-75
2022/08/28 03:09:11;;;;;;;6.40;4.00;;;13.30;99.90;;;;;;6338839;22;20360;-75
2022/08/28 03:11:37;;;;;;;7.55;4.90;;;13.30;99.90;;;;;;6338129;22;20015;-74
2022/08/28 03:14:03;;;;;;;7.75;4.88;;;13.30;99.90;;;;;;6339151;22;20003;-75
2022/08/28 03:16:31;;;;;;;15.07;5.57;;;13.30;99.90;;;;;;6339158;22;19999;-75
2022/08/28 03:18:57;;;;;;;7.47;4.13;;;13.30;99.90;;;;;;6338206;22;20044;-75
2022/08/28 03:21:23;;;;;;;5.88;3.80;;;13.30;99.90;;;;;;6339069;22;20377;-75
2022/08/28 03:23:48;;;;;;;6.68;4.28;;;13.30;99.90;;;;;;6339140;22;20007;-75
2022/08/28 03:26:18;;;;;;;12.30;4.43;;;13.30;99.90;;;;;;6338178;22;20006;-74
2022/08/28 03:28:52;;;;;;;6.50;4.07;;;13.20;99.90;;;;;;6338654;22;20019;-74
2022/08/28 03:31:23;;;;;;;8.05;4.93;;;13.30;99.90;;;;;;6339132;22;20323;-74
2022/08/28 03:33:49;;;;;;;8.05;4.38;;;13.20;99.90;;;;;;6338232;22;20066;-74
2022/08/28 03:36:27;;;;;;;6.95;5.07;;;13.20;99.90;;;;;;6339008;22;20006;-75
2022/08/28 03:38:56;;;;;;;5.95;3.80;;;13.20;99.90;;;;;;6339206;22;20010;-74
2022/08/28 03:41:23;;;;;;;9.63;4.68;;;13.20;99.90;;;;;;6337787;22;20377;-75
2022/08/28 03:43:49;;;;;;;8.13;4.80;;;13.20;99.90;;;;;;6338573;22;20021;-74
2022/08/28 03:46:22;;;;;;;9.43;4.65;;;13.20;99.90;;;;;;6339276;22;20037;-75
2022/08/28 03:48:49;;;;;;;7.05;3.85;;;13.20;99.90;;;;;;6339673;22;20328;-76
2022/08/28 03:51:21;;;;;;;14.77;5.65;;;13.10;99.90;;;;;;6340719;22;20427;-75
2022/08/28 03:53:47;;;;;;;7.57;4.43;;;13.20;99.90;;;;;;6339775;22;20414;-74
2022/08/28 03:56:17;;;;;;;5.35;4.38;;;13.10;99.90;;;;;;6340489;22;20003;-75
2022/08/28 03:58:43;;;;;;;8.50;5.18;;;13.10;99.90;;;;;;6340514;22;19999;-74
2022/08/28 04:01:09;;;;;;;11.45;5.65;;;13.10;99.90;;;;;;6339401;22;19998;-75
2022/08/28 04:03:35;;;;;;;8.10;5.10;;;13.10;99.90;;;;;;6340831;22;20007;-76
2022/08/28 04:06:00;;;;;;;11.05;6.53;;;13.60;99.90;;;;;;6340582;22;20010;-75
2022/08/28 04:08:28;;;;;;;11.48;5.75;;;13.10;99.90;;;;;;6339344;22;20390;-74
2022/08/28 04:10:54;;;;;;;10.52;5.15;;;13.00;99.90;;;;;;6340432;22;20007;-74
2022/08/28 04:13:21;;;;;;;7.15;5.07;;;13.00;99.90;;;;;;6340581;22;19994;-75
2022/08/28 04:15:58;;;;;;;11.88;5.45;;;13.00;99.90;;;;;;6339881;22;20295;-75
2022/08/28 04:18:25;;;;;;;8.80;5.13;;;13.00;99.90;;;;;;6340579;22;20071;-74
2022/08/28 04:21:04;;;;;;;17.23;5.80;;;13.00;99.90;;;;;;6340609;22;20380;-75
2022/08/28 04:23:30;;;;;;;9.43;5.07;;;13.00;99.90;;;;;;6339703;22;20074;-74
2022/08/28 04:25:56;;;;;;;18.55;6.30;;;13.00;99.90;;;;;;6340418;22;20257;-73
2022/08/28 04:28:23;;;;;;;8.23;5.40;;;13.00;99.90;;;;;;6339645;22;20084;-73
2022/08/28 04:30:53;;;;;;;8.55;5.97;;;13.00;99.90;;;;;;6339326;22;20042;-74
2022/08/28 04:33:21;;;;;;;13.65;6.15;;;13.00;99.90;;;;;;6340118;22;20051;-74
2022/08/28 04:35:48;;;;;;;20.60;6.35;;;13.00;99.90;;;;;;6340111;22;19999;-73
2022/08/28 04:38:13;;;;;;;12.75;5.75;;;13.00;99.90;;;;;;6338941;22;19999;-74
2022/08/28 04:40:40;;;;;;;16.85;6.10;;;13.00;99.90;;;;;;6339780;22;20002;-74
2022/08/28 04:43:06;;;;;;;7.53;5.03;;;13.00;99.90;;;;;;6340276;22;20038;-75
2022/08/28 04:45:32;;;;;;;7.60;5.68;;;13.00;99.90;;;;;;6340216;22;20006;-75
2022/08/28 04:47:58;;;;;;;11.90;6.32;;;13.00;99.90;;;;;;6340184;22;20006;-75
2022/08/28 04:50:24;;;;;;;6.97;5.30;;;13.00;99.90;;;;;;6339498;22;20056;-76
2022/08/28 04:52:50;;;;;;;10.00;6.22;;;13.00;99.90;;;;;;6339805;22;19999;-75
2022/08/28 04:55:16;;;;;;;9.93;5.60;;;13.00;99.90;;;;;;6340673;22;20003;-75
2022/08/28 04:57:42;;;;;;;12.23;6.32;;;13.00;99.90;;;;;;6339171;22;20484;-75
2022/08/28 05:00:10;;;;;;;12.10;6.13;;;13.00;99.90;;;;;;6339988;22;20022;-75
2022/08/28 05:02:36;;;;;;;9.73;5.65;;;13.00;99.90;;;;;;6340296;22;20003;-74
2022/08/28 05:05:02;;;;;;;9.60;6.28;;;13.00;99.90;;;;;;6339177;22;20001;-76
2022/08/28 05:07:28;;;;;;;6.28;5.57;;;13.00;99.90;;;;;;6339303;22;20034;-75
2022/08/28 05:09:54;;;;;;;8.65;6.20;;;13.10;99.90;;;;;;6339973;22;20013;-75
2022/08/28 05:12:21;;;;;;;11.70;6.05;;;13.10;99.90;;;;;;6338981;22;20331;-74
2022/08/28 05:14:47;;;;;;;12.15;6.18;;;13.10;99.90;;;;;;6339752;22;20208;-74
2022/08/28 05:17:13;;;;;;;8.93;6.25;;;13.10;99.90;;;;;;6339769;22;20013;-74
2022/08/28 05:19:39;;;;;;;9.35;5.80;;;13.10;99.90;;;;;;6339309;22;19995;-74
2022/08/28 05:22:05;;;;;;;15.73;6.15;;;13.20;99.90;;;;;;6339706;22;20466;-74
2022/08/28 05:24:31;;;;;;;11.07;5.70;;;13.20;99.90;;;;;;6340135;22;19999;-75
2022/08/28 05:26:57;;;;;;;7.82;5.70;;;13.30;99.90;;;;;;6338526;22;20007;-74
2022/08/28 05:29:23;;;;;;;12.18;5.28;;;13.30;99.90;;;;;;6339491;22;20003;-76
2022/08/28 05:31:49;;;;;;;18.55;5.57;;;13.30;99.90;;;;;;6339809;22;20015;-74
2022/08/28 05:34:15;;;;;;;7.38;5.47;;;13.40;99.90;;;;;;6338923;22;19999;-75
2022/08/28 05:36:41;;;;;;;11.32;5.40;;;13.40;99.90;;;;;;6339895;22;20022;-73
2022/08/28 05:39:10;;;;;;;14.82;6.72;;;13.50;99.90;;;;;;6339864;22;20072;-74
2022/08/28 05:41:38;;;;;;;12.15;5.30;;;13.50;99.90;;;;;;6339778;22;20065;-74
2022/08/28 05:44:06;;;;;;;13.10;5.43;;;13.50;99.90;;;;;;6340134;22;20018;-75
2022/08/28 05:46:33;;;;;;;10.05;5.72;;;13.60;99.90;;;;;;6339117;22;20102;-74
2022/08/28 05:48:59;;;;;;;9.55;5.63;;;13.60;99.90;;;;;;6339816;22;20359;-75
2022/08/28 05:51:25;;;;;;;7.35;5.05;;;13.70;99.90;;;;;;6339864;22;20041;-74
2022/08/28 05:53:52;;;;;;;15.63;6.50;;;13.70;99.90;;;;;;6339351;22;20002;-75
2022/08/28 05:56:24;;;;;;;8.50;5.55;;;13.80;99.90;;;;;;6340367;22;20028;-74
2022/08/28 05:58:50;;;;;;;13.23;5.65;;;13.90;99.90;;;;;;6339931;22;19999;-75
2022/08/28 06:01:19;;;;;;;11.20;5.78;;;13.90;99.90;;;;;;6338502;22;20030;-75
2022/08/28 06:04:10;;;;;;;15.05;5.22;;;14.00;99.90;;;;;;6339093;22;20427;-74
2022/08/28 06:06:38;;;;;;;14.95;5.80;;;14.10;99.90;;;;;;6338605;22;20085;-76
2022/08/28 06:09:07;;;;;;;15.52;6.20;;;14.10;99.90;;;;;;6338470;22;19998;-74
2022/08/28 06:11:33;;;;;;;13.82;4.70;;;14.20;99.90;;;;;;6339160;22;20408;-75
2022/08/28 06:14:00;;;;;;;9.75;5.22;;;14.30;99.90;;;;;;6339636;22;20100;-75
2022/08/28 06:16:28;;;;;;;9.57;4.93;;;14.40;99.90;;;;;;6338847;22;20078;-73
2022/08/28 06:18:55;;;;;;;14.07;5.45;;;14.50;99.90;;;;;;6339335;22;19999;-73
2022/08/28 06:21:21;;;;;;;9.15;4.80;;;14.50;99.90;;;;;;6339670;22;20013;-74
2022/08/28 06:23:46;;;;;;;10.13;5.35;;;14.60;99.90;;;;;;6339038;22;19991;-74
2022/08/28 06:26:12;;;;;;;9.95;4.65;;;14.70;99.90;;;;;;6339872;22;19998;-74
2022/08/28 06:28:37;;;;;;;9.35;4.63;;;14.70;99.90;;;;;;6338710;22;20011;-74
2022/08/28 06:31:04;;;;;;;26.25;5.50;;;14.80;99.90;;;;;;6340038;22;20015;-75
2022/08/28 06:33:30;;;;;;;7.97;4.28;;;14.90;99.90;;;;;;6341379;22;19999;-75
2022/08/28 06:35:56;;;;;;;13.00;4.80;;;14.90;99.90;;;;;;6343918;22;20010;-74
2022/08/28 06:38:25;;;;;;;8.05;3.80;;;15.10;99.90;;;;;;6345034;22;20014;-74
2022/08/28 06:40:56;;;;;;;10.68;3.65;;;15.10;99.90;;;;;;6344891;22;20030;-75
2022/08/28 06:43:24;;;;;;;9.93;3.45;;;15.20;99.90;;;;;;6344394;22;20025;-76
2022/08/28 06:45:53;;;;;;;11.05;4.45;;;15.30;99.90;;;;;;6345684;22;20002;-75
2022/08/28 06:48:21;;;;;;;7.78;3.75;;;15.40;99.90;;;;;;6342234;22;20011;-74
2022/08/28 06:50:50;;;;;;;11.75;4.40;;;15.40;99.90;;;;;;6337913;22;20141;-74
2022/08/28 06:53:19;;;;;;;7.40;3.38;;;15.50;99.90;;;;;;6339286;22;19999;-76
2022/08/28 06:55:54;;;;;;;5.70;3.15;;;15.60;99.90;;;;;;6339442;22;20045;-74
2022/08/28 06:58:19;;;;;;;7.65;3.10;;;15.60;99.90;;;;;;6338403;22;20010;-74
2022/08/28 07:00:45;;;;;;;5.75;3.03;;;15.70;99.90;;;;;;6339264;22;20487;-74
2022/08/28 07:03:12;;;;;;;8.18;3.83;;;15.90;99.90;;;;;;6339276;22;20014;-75
2022/08/28 07:05:37;;;;;;;11.32;4.03;;;15.90;99.90;;;;;;6338485;22;19998;-74
2022/08/28 07:08:03;;;;;;;9.30;3.95;;;16.00;99.90;;;;;;6338700;22;20006;-73
2022/08/28 07:10:30;;;;;;;8.68;2.75;;;16.10;99.90;;;;;;6338708;22;20003;-76
2022/08/28 07:12:56;;;;;;;9.52;3.42;;;16.10;99.90;;;;;;6339720;22;20002;-75
2022/08/28 07:15:22;;;;;;;12.35;3.45;;;16.20;99.90;;;;;;6340910;22;20472;-74
2022/08/28 07:17:47;;;;;;;9.73;3.03;;;16.20;99.90;;;;;;6340013;22;19999;-74
2022/08/28 07:20:13;;;;;;;10.18;3.22;;;16.20;99.90;;;;;;6339614;22;20001;-75
2022/08/28 07:22:39;;;;;;;8.05;3.35;;;16.30;99.90;;;;;;6340850;22;20473;-75
2022/08/28 07:25:07;;;;;;;13.40;3.05;;;16.40;99.90;;;;;;6339616;22;20091;-75
2022/08/28 07:27:32;;;;;;;9.60;3.17;;;16.40;99.90;;;;;;6342700;22;20019;-75
2022/08/28 07:29:58;;;;;;;7.35;3.00;;;16.50;99.90;;;;;;6341075;22;20003;-74
2022/08/28 07:32:24;;;;;;;7.45;3.25;;;16.50;99.90;;;;;;6339263;22;20048;-74
2022/08/28 07:34:50;;;;;;;8.90;3.53;;;16.60;99.90;;;;;;6340619;22;19999;-75
2022/08/28 07:37:16;;;;;;;8.43;2.75;;;16.70;99.90;;;;;;6340971;22;20018;-74
2022/08/28 07:39:43;;;;;;;7.13;3.33;;;16.80;99.90;;;;;;6340204;22;20003;-74
2022/08/28 07:42:09;;;;;;;9.02;2.38;;;17.00;99.90;;;;;;6340846;22;20026;-75
2022/08/28 07:44:50;;;;;;;8.20;2.67;;;17.00;99.90;;;;;;6341005;22;19999;-74
2022/08/28 07:47:17;;;;;;;10.82;3.10;;;17.10;99.90;;;;;;6339957;22;20077;-74
2022/08/28 07:49:43;;;;;;;4.95;2.40;;;17.30;99.90;;;;;;6340737;22;20082;-73
2022/08/28 07:52:10;;;;;;;7.65;2.72;;;17.40;99.90;;;;;;6341072;22;20011;-75
2022/08/28 07:54:39;;;;;;;11.00;2.63;;;17.40;99.90;;;;;;6340240;22;20003;-75
2022/08/28 07:57:05;;;;;;;9.07;2.83;;;17.50;99.90;;;;;;6341188;22;20034;-75
2022/08/28 07:59:31;;;;;;;7.78;2.08;;;17.60;99.90;;;;;;6340804;22;20014;-76
2022/08/28 08:01:57;;;;;;;5.47;2.03;;;17.70;99.90;;;;;;6339434;22;20393;-75
2022/08/28 08:04:23;;;;;;;8.35;2.72;;;17.70;99.90;;;;;;6340908;22;20024;-75
2022/08/28 08:06:51;;;;;;;10.07;2.53;;;17.80;99.90;;;;;;6340967;22;20015;-76
2022/08/28 08:09:18;;;;;;;8.23;3.75;;;17.80;99.90;;;;;;6341059;22;20070;-76
2022/08/28 08:11:45;;;;;;;7.93;2.00;;;18.10;99.90;;;;;;6340124;22;20030;-75
2022/08/28 08:14:11;;;;;;;5.35;1.70;;;18.30;99.90;;;;;;6339781;22;20006;-74
2022/08/28 08:16:39;;;;;;;8.20;1.83;;;18.50;99.90;;;;;;6340818;22;20323;-75
2022/08/28 08:19:08;;;;;;;6.03;1.52;;;18.70;99.90;;;;;;6340602;22;20018;-76
2022/08/28 08:21:34;;;;;;;8.32;1.50;;;18.80;99.90;;;;;;6339467;22;20362;-75
2022/08/28 08:24:00;;;;;;;4.10;1.50;;;18.90;99.90;;;;;;6340503;22;20027;-74
2022/08/28 08:26:27;;;;;;;4.25;1.95;;;19.10;99.90;;;;;;6340317;22;20006;-75
2022/08/28 08:28:53;;;;;;;5.38;1.48;;;19.10;99.90;;;;;;6311738;22;20427;-76
2022/08/28 08:31:25;;;;;;;7.18;1.65;;;19.20;99.90;;;;;;6340009;22;20014;-75
2022/08/28 08:33:54;;;;;;;8.52;1.73;;;19.20;99.90;;;;;;6339428;22;20462;-75
2022/08/28 08:36:22;;;;;;;4.60;1.75;;;19.30;99.90;;;;;;6339752;22;20003;-75
2022/08/28 08:38:48;;;;;;;3.88;1.30;;;19.30;99.90;;;;;;6340551;22;20007;-74
2022/08/28 08:41:26;;;;;;;4.78;1.88;;;19.40;99.90;;;;;;6340303;22;20056;-74
2022/08/28 08:43:58;;;;;;;5.45;1.63;;;19.40;99.90;;;;;;6339437;22;20006;-75
2022/08/28 08:46:42;;;;;;;3.83;1.48;;;19.50;99.90;;;;;;6339919;22;20028;-76
2022/08/28 08:49:24;;;;;;;4.13;1.30;;;19.50;99.90;;;;;;6339261;22;19999;-74
2022/08/28 08:52:21;;;;;;;10.10;2.00;;;19.60;99.90;;;;;;6339727;22;20010;-75
2022/08/28 08:55:08;;;;;;;5.45;1.75;;;19.60;99.90;;;;;;6340212;22;20009;-75
2022/08/28 08:57:36;;;;;;;3.03;1.48;;;19.60;99.90;;;;;;6339507;22;20003;-76
2022/08/28 09:00:08;;;;;;;3.10;1.38;;;19.60;99.90;;;;;;6340012;22;20319;-74
2022/08/28 09:02:42;;;;;;;3.72;1.80;;;19.80;99.90;;;;;;6340309;22;20313;-75
2022/08/28 09:05:14;;;;;;;6.88;1.92;;;20.00;99.90;;;;;;6339475;22;20085;-75
2022/08/28 09:08:01;;;;;;;7.25;2.58;;;20.00;99.90;;;;;;6340217;22;20010;-76
2022/08/28 09:10:36;;;;;;;6.40;1.92;;;20.30;99.90;;;;;;6339014;22;20010;-75
2022/08/28 09:13:14;;;;;;;4.60;1.65;;;20.40;99.90;;;;;;6340249;22;20059;-76
2022/08/28 09:15:44;;;;;;;8.23;1.60;;;20.60;99.90;;;;;;6340210;22;20010;-75
2022/08/28 09:18:12;;;;;;;3.55;1.33;;;20.50;99.90;;;;;;6339174;22;20074;-76
2022/08/28 09:20:39;;;;;;;3.65;1.65;;;20.50;99.90;;;;;;6339985;22;20007;-76
2022/08/28 09:23:05;;;;;;;2.78;1.15;;;20.40;99.90;;;;;;6339977;22;20013;-76
2022/08/28 09:25:43;;;;;;;6.13;1.27;;;20.60;99.90;;;;;;6339067;22;20402;-75
2022/08/28 09:28:10;;;;;;;1.95;1.20;;;20.80;99.90;;;;;;6339717;22;20019;-75
2022/08/28 09:30:36;;;;;;;2.33;1.55;;;20.80;99.90;;;;;;6339884;22;20432;-74
2022/08/28 09:33:02;;;;;;;3.92;1.60;;;20.80;99.90;;;;;;6338508;22;20007;-75
2022/08/28 09:35:33;;;;;;;4.60;1.30;;;20.80;99.90;;;;;;6339855;22;20319;-74
2022/08/28 09:38:18;;;;;;;3.92;1.20;;;20.80;99.90;;;;;;6339266;22;19995;-76
2022/08/28 09:43:30;;;;;;;6.25;1.67;;;20.70;99.50;;;;;;6339960;22;20345;-75
2022/08/28 09:46:03;;;;;;;3.70;1.27;;;20.70;99.80;;;;;;6338802;22;20003;-75
2022/08/28 09:48:36;;;;;;;3.45;1.30;;;20.80;99.90;;;;;;6342436;22;19999;-75
2022/08/28 09:51:25;;;;;;;6.82;1.38;;;20.80;99.90;;;;;;6342162;22;20413;-76
2022/08/28 09:54:06;;;;;;;6.20;1.52;;;20.80;99.20;;;;;;6339313;22;20003;-74
2022/08/28 09:56:40;;;;;;;3.78;1.65;;;20.80;99.20;;;;;;6340009;22;20075;-75
2022/08/28 09:59:12;;;;;;;3.15;1.30;;;20.80;99.30;;;;;;6340107;22;20056;-75
2022/08/28 10:01:38;;;;;;;2.47;1.27;;;21.00;99.00;;;;;;6339731;22;20120;-75
2022/08/28 10:04:28;;;;;;;2.45;1.48;;;21.10;98.70;;;;;;6339976;22;19995;-76
2022/08/28 10:07:08;;;;;;;3.33;1.65;;;21.20;99.00;;;;;;6338570;22;20043;-76
2022/08/28 10:09:55;;;;;;;3.33;1.45;;;21.10;98.50;;;;;;6339536;22;19999;-76
2022/08/28 10:12:38;;;;;;;2.33;1.35;;;21.00;99.10;;;;;;6339767;22;20006;-76
2022/08/28 10:15:29;;;;;;;2.90;1.50;;;21.00;99.50;;;;;;6338429;22;20074;-76
2022/08/28 10:18:10;;;;;;;3.88;1.35;;;20.90;98.90;;;;;;6339735;22;20018;-76
2022/08/28 10:21:13;;;;;;;3.10;1.30;;;20.80;99.10;;;;;;6338649;22;20041;-77
2022/08/28 10:24:16;;;;;;;4.13;1.02;;;20.80;99.00;;;;;;6339634;22;20063;-75
2022/08/28 10:26:57;;;;;;;4.28;1.20;;;20.80;98.90;;;;;;6338987;22;20003;-76
2022/08/28 10:29:35;;;;;;;2.92;1.10;;;20.80;98.80;;;;;;6338812;22;20323;-76
2022/08/28 10:32:15;;;;;;;3.33;1.52;;;20.90;98.90;;;;;;6339473;22;20031;-76
2022/08/28 10:35:12;;;;;;;1.42;0.95;;;21.10;98.30;;;;;;6338429;22;20006;-75
2022/08/28 10:38:11;;;;;;;3.35;1.38;;;21.30;98.20;;;;;;6339079;22;20073;-75
2022/08/28 10:40:48;;;;;;;1.60;1.02;;;21.40;97.20;;;;;;6338699;22;20356;-75
2022/08/28 10:43:28;;;;;;;6.50;1.58;;;21.60;97.40;;;;;;6338603;22;20003;-75
2022/08/28 10:45:58;;;;;;;5.18;1.30;;;21.90;97.20;;;;;;6339353;22;20055;-74
2022/08/28 10:48:38;;;;;;;4.05;1.20;;;22.00;97.10;;;;;;6339568;22;19998;-74
2022/08/28 10:51:13;;;;;;;;;;;22.10;96.70;;;;;;6339369;22;20447;-75
2022/08/28 10:53:45;;;;;;;2.53;1.10;;;22.00;96.40;;;;;;6339390;22;19928;-75
2022/08/28 10:56:29;;;;;;;3.63;1.17;;;21.90;96.50;;;;;;6338689;22;20073;-76
2022/08/28 10:58:57;;;;;;;4.28;1.35;;;21.80;96.40;;;;;;6341947;22;19999;-76
2022/08/28 11:01:31;;;;;;;3.92;1.25;;;21.70;96.70;;;;;;6341997;22;20057;-76
2022/08/28 11:04:00;;;;;;;4.63;1.27;;;21.60;97.00;;;;;;6341167;22;20010;-76
2022/08/28 11:06:38;;;;;;;3.22;1.83;;;21.50;97.10;;;;;;6341941;22;20018;-76
2022/08/28 11:09:28;;;;;;;2.58;1.25;;;21.40;97.00;;;;;;6343187;22;20003;-76
2022/08/28 11:12:00;;;;;;;4.05;1.13;;;21.40;97.60;;;;;;6345988;22;20343;-74
2022/08/28 11:14:32;;;;;;;2.83;1.48;;;21.30;97.60;;;;;;6346624;22;19998;-74
2022/08/28 11:17:06;;;;;;;5.07;1.27;;;21.50;97.40;;;;;;6345459;22;19995;-77
2022/08/28 11:19:59;;;;;;;2.42;1.35;;;21.70;96.60;;;;;;6350683;22;20019;-76
2022/08/28 11:22:33;;;;;;;4.65;1.35;;;21.90;96.00;;;;;;6350745;22;20003;-76
2022/08/28 11:25:05;;;;;;;2.42;1.20;;;22.10;96.00;;;;;;6349985;22;19995;-76
2022/08/28 11:27:35;;;;;;;4.10;1.02;;;22.20;94.80;;;;;;6342062;22;20045;-75
2022/08/28 11:30:09;;;;;;;3.03;1.10;;;22.20;94.90;;;;;;6340883;22;20007;-76
2022/08/28 11:32:50;;;;;;;3.63;1.55;;;22.20;94.80;;;;;;6340279;22;19999;-75
2022/08/28 11:35:37;;;;;;;3.55;1.25;;;22.00;94.90;;;;;;6340871;22;20007;-75
2022/08/28 11:38:03;;;;;;;4.75;1.65;;;22.10;95.40;;;;;;6339980;22;19999;-75
2022/08/28 11:40:29;;;;;;;3.17;1.20;;;22.00;95.90;;;;;;6340866;22;20129;-76
2022/08/28 11:43:19;;;;;;;1.92;1.02;;;22.00;96.30;;;;;;6340822;22;20115;-76
2022/08/28 11:45:45;;;;;;;4.25;1.27;;;21.90;96.30;;;;;;6340253;22;20079;-75
2022/08/28 11:48:33;;;;;;;3.58;1.67;;;21.80;96.30;;;;;;6340757;22;19998;-75
2022/08/28 11:51:06;;;;;;;5.30;1.27;;;21.90;95.80;;;;;;6340602;22;20010;-75
2022/08/28 11:53:53;;;;;;;4.60;1.50;;;22.00;95.20;;;;;;6339868;22;20361;-75
2022/08/28 11:56:48;;;;;;;2.67;1.08;;;22.10;95.10;;;;;;6340730;22;20009;-76
2022/08/28 11:59:33;;;;;;;2.63;1.30;;;22.30;95.40;;;;;;6340031;22;20003;-75
2022/08/28 12:02:30;;;;;;;1.83;1.35;;;22.40;95.20;;;;;;6339973;22;20003;-75
2022/08/28 12:04:56;;;;;;;4.93;1.33;;;22.60;94.70;;;;;;6340721;22;20038;-76
2022/08/28 12:07:31;;;;;;;3.03;1.35;;;22.50;94.30;;;;;;6339878;22;19995;-74
2022/08/28 12:09:57;;;;;;;4.57;1.38;;;22.30;94.50;;;;;;6340731;22;20038;-75
2022/08/28 12:12:23;;;;;;;2.47;1.25;;;22.20;94.70;;;;;;6340542;22;20325;-74
2022/08/28 12:14:54;;;;;;;5.53;1.40;;;22.20;94.90;;;;;;6339356;22;19998;-74
2022/08/28 12:17:20;;;;;;;3.95;1.10;;;22.20;95.00;;;;;;6340518;22;20006;-74
2022/08/28 12:19:55;;;;;;;2.40;1.05;;;22.30;94.50;;;;;;6340792;22;20078;-75
2022/08/28 12:22:25;;;;;;;4.13;1.70;;;22.50;94.50;;;;;;6343471;22;20003;-75
2022/08/28 12:24:58;;;;;;;2.60;1.15;;;22.70;94.90;;;;;;6348555;22;20009;-76
2022/08/28 12:27:25;;;;;;;3.25;1.25;;;22.60;94.00;;;;;;6339786;22;20371;-76
2022/08/28 12:29:54;;;;;;;3.30;1.42;;;22.60;94.20;;;;;;6341023;22;20018;-75
2022/08/28 12:32:45;;;;;;;2.45;1.27;;;22.70;94.20;;;;;;6340676;22;20006;-76
2022/08/28 12:35:13;;;;;;;2.97;1.10;;;22.80;94.60;;;;;;6340815;22;20465;-75
2022/08/28 12:37:51;;;;;;;1.20;0.95;;;22.90;94.00;;;;;;6340758;22;20021;-75
2022/08/28 12:40:18;;;;;;;1.67;1.00;;;23.10;93.90;;;;;;6340308;22;20064;-75
2022/08/28 12:42:46;;;;;;;1.58;1.05;;;23.00;94.00;;;;;;6339866;22;20077;-76
2022/08/28 12:45:32;;;;;;;5.57;1.33;;;23.00;93.20;;;;;;6340940;22;20052;-75
2022/08/28 12:48:04;;;;;;;3.67;1.02;;;22.90;93.50;;;;;;6339951;22;19995;-75
2022/08/28 12:50:36;;;;;;;1.92;1.38;;;22.80;93.40;;;;;;6339380;22;20018;-75
2022/08/28 12:53:05;;;;;;;3.45;1.42;;;22.80;93.80;;;;;;6340155;22;20019;-76
2022/08/28 12:55:32;;;;;;;2.97;1.10;;;22.90;94.10;;;;;;6338942;22;20015;-74
2022/08/28 12:57:58;;;;;;;3.03;1.33;;;22.90;93.50;;;;;;6340289;22;19999;-76
2022/08/28 13:00:27;;;;;;;5.15;1.50;;;22.90;93.50;;;;;;6340170;22;20415;-76
2022/08/28 13:02:54;;;;;;;1.73;1.10;;;22.80;93.50;;;;;;6339077;22;20003;-76
2022/08/28 13:05:33;;;;;;;2.42;0.90;;;22.80;93.50;;;;;;6340206;22;19995;-76
2022/08/28 13:08:07;;;;;;;1.95;1.40;;;22.90;93.70;;;;;;6340318;22;20120;-76